KLAL/LAL METAR and TAF weather

Enter ICAO airport designator
Station Type Date Time Source
KLAL METAR 2020/09/22 06:50 UTC NOAA

KLAL 220650Z 02005KT 10SM SKC 22/19 A3005


Station Type Date Time Source
KLAL Decoded METAR 2020/09/22 06:50 UTC NOAA

Lakeland Regional, FL, United States (KLAL) 27-59N 082-01W
Sep 22, 2020 - 02:50 AM EDT / 2020.09.22 0650 UTC
Wind: from the NNE (020 degrees) at 6 MPH (5 KT):0
Visibility: 10 mile(s):0
Sky conditions: clear
Temperature: 71 F (22 C)
Dew Point: 66 F (19 C)
Relative Humidity: 83%
Pressure (altimeter): 30.05 in. Hg (1017 hPa)
ob: KLAL 220650Z 02005KT 10SM SKC 22/19 A3005
cycle: 7

Station Type Date Time Source
KLAL TAF 2020/09/22 06:22 UTC NOAA

TAF KLAL 220520Z 2206/2306 04008KT P6SM FEW020 BKN035
FM221400 07013G20KT P6SM BKN045 BKN250
FM230100 08009KT P6SM FEW030 OVC250
AMD NOT SKED TIL 221100

Example: see airport list